Time;durP1;ratioP1;P1;durP2;ratioP2;P2;SDS_P1;SDS_P2;PMS_P1;PMS_P2;Temp;Humidity;BMP_temperature;BMP_pressure;BME280_temperature;BME280_humidity;BME280_pressure;Samples;Min_cycle;Max_cycle;Signal;HPM_P1;HPM_P2
2023/10/03 00:00:33;;;;;;;0.40;0.40;;;;;;;18.35;69.79;97017.44;29396;229;63022;-56
2023/10/03 00:01:05;;;;;;;0.40;0.40;;;;;;;18.36;69.87;97018.25;29396;250;63004;-56
2023/10/03 00:01:37;;;;;;;0.40;0.40;;;;;;;18.37;70.00;97019.81;29396;301;63016;-55
2023/10/03 00:02:09;;;;;;;0.40;0.40;;;;;;;18.34;70.09;97020.53;29396;273;63016;-54
2023/10/03 00:02:41;;;;;;;0.30;0.30;;;;;;;18.34;69.88;97020.53;29396;203;63020;-55
2023/10/03 00:03:13;;;;;;;0.40;0.40;;;;;;;18.34;69.84;97020.53;29396;204;63011;-54
2023/10/03 00:03:45;;;;;;;0.30;0.30;;;;;;;18.34;69.95;97015.84;29396;233;63021;-55
2023/10/03 00:04:16;;;;;;;0.40;0.40;;;;;;;18.34;70.33;97015.84;29396;207;63005;-55
2023/10/03 00:04:48;;;;;;;14.60;2.45;;;;;;;18.34;69.93;97009.53;29391;233;64009;-55
2023/10/03 00:05:22;;;;;;;0.30;0.30;;;;;;;18.32;70.11;97014.56;29395;228;64009;-55
2023/10/03 00:05:54;;;;;;;0.40;0.40;;;;;;;18.29;70.36;97013.31;29396;217;63009;-67
2023/10/03 00:06:26;;;;;;;0.80;0.80;;;;;;;18.30;70.36;97020.41;29396;238;63016;-56
2023/10/03 00:06:58;;;;;;;0.30;0.30;;;;;;;18.31;70.43;97015.72;29396;291;63013;-55
2023/10/03 00:07:30;;;;;;;0.40;0.40;;;;;;;18.31;70.46;97010.22;29396;276;63004;-55
2023/10/03 00:08:11;;;;;;;0.40;0.40;;;;;;;18.29;70.27;97012.50;29396;197;63009;-55
2023/10/03 00:08:45;;;;;;;0.35;0.35;;;;;;;18.29;70.39;97012.50;29418;241;63000;-55
2023/10/03 00:09:17;;;;;;;0.30;0.30;;;;;;;18.32;70.31;97017.31;29396;215;63009;-56
2023/10/03 00:09:48;;;;;;;0.35;0.35;;;;;;;18.29;70.17;97009.75;29396;338;63005;-55
2023/10/03 00:10:20;;;;;;;0.40;0.40;;;;;;;18.31;70.32;97010.22;29395;207;64014;-56
2023/10/03 00:10:52;;;;;;;0.40;0.40;;;;;;;18.34;69.90;97009.53;29395;281;64009;-55
2023/10/03 00:11:23;;;;;;;0.50;0.50;;;;;;;18.35;70.30;97014.69;29396;355;63009;-57
2023/10/03 00:11:54;;;;;;;0.40;0.40;;;;;;;18.34;70.06;97004.03;29396;209;63005;-55
2023/10/03 00:12:26;;;;;;;1.40;1.40;;;;;;;18.36;70.31;97012.75;29395;302;64013;-55
2023/10/03 00:12:58;;;;;;;0.40;0.40;;;;;;;18.37;69.95;97009.62;29396;274;63005;-54
2023/10/03 00:13:31;;;;;;;0.30;0.30;;;;;;;18.39;70.08;97009.28;29396;255;63009;-55
2023/10/03 00:14:07;;;;;;;0.30;0.30;;;;;;;18.40;69.89;97005.41;29396;204;63004;-55
2023/10/03 00:14:38;;;;;;;0.40;0.40;;;;;;;18.37;70.03;97003.34;29396;255;63009;-54
2023/10/03 00:15:12;;;;;;;0.40;0.40;;;;;;;18.37;69.72;97008.81;29397;315;63004;-56
2023/10/03 00:15:44;;;;;;;0.40;0.40;;;;;;;18.36;70.22;97015.50;29397;297;63008;-54
2023/10/03 00:16:17;;;;;;;0.40;0.40;;;;;;;18.37;69.99;97008.81;29397;248;63004;-53
2023/10/03 00:16:50;;;;;;;0.40;0.40;;;;;;;18.36;69.80;97013.56;29397;299;63028;-55
2023/10/03 00:17:21;;;;;;;0.40;0.40;;;;;;;18.38;69.84;97011.25;29396;457;64009;-56
2023/10/03 00:17:53;;;;;;;0.30;0.30;;;;;;;18.36;70.05;97010.81;29397;256;63009;-55
2023/10/03 00:18:25;;;;;;;0.30;0.30;;;;;;;18.37;69.95;97006.09;29396;242;64009;-55
2023/10/03 00:18:56;;;;;;;0.35;0.35;;;;;;;18.38;69.93;97010.44;29397;281;63009;-54
2023/10/03 00:19:27;;;;;;;0.40;0.40;;;;;;;18.37;70.39;97015.13;29397;203;63005;-54
2023/10/03 00:19:58;;;;;;;1.48;1.37;;;;;;;18.47;69.71;97008.41;29396;249;63009;-55
2023/10/03 00:20:29;;;;;;;0.40;0.40;;;;;;;18.43;69.52;97012.97;29396;291;64009;-60
2023/10/03 00:21:01;;;;;;;0.40;0.40;;;;;;;18.37;70.18;97014.31;29397;198;63009;-55
2023/10/03 00:21:34;;;;;;;0.40;0.40;;;;;;;18.34;70.39;97013.09;29397;221;63004;-54
2023/10/03 00:22:08;;;;;;;0.47;0.47;;;;;;;18.31;70.11;97011.00;29397;224;63027;-56
2023/10/03 00:22:41;;;;;;;0.65;0.65;;;;;;;18.34;70.34;97009.53;29396;295;64009;-55
2023/10/03 00:23:12;;;;;;;0.40;0.40;;;;;;;18.33;70.46;97011.47;29396;221;64013;-55
2023/10/03 00:23:44;;;;;;;0.40;0.40;;;;;;;18.35;70.38;97011.94;29397;245;63004;-55
2023/10/03 00:24:15;;;;;;;1.25;1.15;;;;;;;18.37;70.12;97014.31;29397;247;63014;-55
2023/10/03 00:24:47;;;;;;;0.40;0.40;;;;;;;18.36;70.46;97013.56;29397;212;63005;-54
2023/10/03 00:25:19;;;;;;;0.40;0.40;;;;;;;18.34;70.02;97010.34;29397;251;63009;-55
2023/10/03 00:25:50;;;;;;;0.40;0.40;;;;;;;18.32;70.29;97004.38;29397;297;63005;-53
2023/10/03 00:26:22;;;;;;;0.68;0.68;;;;;;;18.31;70.43;97002.78;29397;219;63009;-55
2023/10/03 00:26:54;;;;;;;0.40;0.40;;;;;;;18.31;70.55;97004.72;29397;203;63005;-56
2023/10/03 00:27:25;;;;;;;0.88;0.88;;;;;;;18.31;70.41;97007.47;29397;216;63009;-54
2023/10/03 00:28:00;;;;;;;0.40;0.40;;;;;;;18.29;70.56;97009.75;29395;241;64009;-54
2023/10/03 00:28:36;;;;;;;2.47;2.28;;;;;;;18.33;70.30;96996.94;29397;213;63009;-56
2023/10/03 00:29:17;;;;;;;0.40;0.40;;;;;;;18.33;70.53;96997.75;29396;219;63004;-55
2023/10/03 00:29:51;;;;;;;0.40;0.40;;;;;;;18.31;70.44;97001.97;29396;233;63009;-55
2023/10/03 00:30:24;;;;;;;0.40;0.40;;;;;;;18.30;70.42;97011.34;29396;220;63004;-55
2023/10/03 00:30:55;;;;;;;0.40;0.40;;;;;;;18.27;70.43;97003.78;29396;242;63008;-55
2023/10/03 00:31:29;;;;;;;0.62;0.62;;;;;;;18.25;70.55;96998.63;29396;197;63004;-55
2023/10/03 00:32:04;;;;;;;0.40;0.40;;;;;;;18.27;70.87;97006.53;29396;202;63009;-55
2023/10/03 00:32:36;;;;;;;0.40;0.40;;;;;;;18.33;70.48;97003.25;29395;224;64009;-55
2023/10/03 00:33:10;;;;;;;0.40;0.40;;;;;;;18.37;70.18;97003.34;29396;219;63009;-55
2023/10/03 00:33:42;;;;;;;0.40;0.40;;;;;;;18.40;70.30;97002.66;29395;225;64009;-55
2023/10/03 00:34:15;;;;;;;0.55;0.55;;;;;;;18.38;70.43;97000.25;29396;230;63005;-55
2023/10/03 00:34:46;;;;;;;0.40;0.40;;;;;;;18.36;70.37;97004.50;29396;239;63005;-55
2023/10/03 00:35:20;;;;;;;0.40;0.40;;;;;;;18.35;70.76;97005.66;29396;202;63009;-54
2023/10/03 00:35:52;;;;;;;0.45;0.45;;;;;;;18.33;70.47;97007.94;29396;300;63004;-55
2023/10/03 00:36:25;;;;;;;0.40;0.40;;;;;;;18.30;70.41;97005.87;29396;307;63024;-55
2023/10/03 00:36:56;;;;;;;0.40;0.40;;;;;;;18.31;70.66;97004.72;29396;230;63004;-55
2023/10/03 00:37:29;;;;;;;0.40;0.40;;;;;;;18.31;70.52;97005.53;29396;240;63008;-55
2023/10/03 00:38:01;;;;;;;0.40;0.40;;;;;;;18.30;70.48;97003.91;29395;241;64008;-55
2023/10/03 00:38:34;;;;;;;0.40;0.40;;;;;;;18.32;70.65;97000.84;29396;219;63008;-54
2023/10/03 00:39:06;;;;;;;0.40;0.40;;;;;;;18.33;70.83;96997.75;29396;242;63003;-55
2023/10/03 00:39:41;;;;;;;0.40;0.40;;;;;;;18.31;70.62;97002.78;29396;242;63009;-56
2023/10/03 00:40:27;;;;;;;0.40;0.40;;;;;;;18.31;70.51;96999.22;29396;244;63005;-55
2023/10/03 00:40:59;;;;;;;0.40;0.40;;;;;;;18.30;70.83;96997.63;29395;209;64013;-55
2023/10/03 00:41:30;;;;;;;0.40;0.40;;;;;;;18.31;70.87;96997.28;29396;216;63005;-55
2023/10/03 00:42:08;;;;;;;0.40;0.40;;;;;;;18.31;70.80;96997.28;29396;202;63016;-54
2023/10/03 00:42:39;;;;;;;0.40;0.40;;;;;;;18.30;70.58;97001.16;29395;275;64009;-55
2023/10/03 00:43:11;;;;;;;0.40;0.40;;;;;;;18.29;70.73;97002.31;29395;221;64009;-55
2023/10/03 00:44:01;;;;;;;0.40;0.40;;;;;;;18.32;70.94;96989.84;29395;231;64009;-55
2023/10/03 00:44:32;;;;;;;0.40;0.40;;;;;;;18.31;70.73;96989.03;29396;300;63009;-54
2023/10/03 00:45:08;;;;;;;0.40;0.40;;;;;;;18.32;70.53;96995.34;29396;247;63004;-55
2023/10/03 00:45:39;;;;;;;0.40;0.40;;;;;;;18.31;70.42;96988.25;29396;218;63008;-55
2023/10/03 00:46:11;;;;;;;0.40;0.40;;;;;;;18.31;70.74;96988.25;29396;197;63005;-54
2023/10/03 00:46:42;;;;;;;0.40;0.40;;;;;;;18.31;70.36;96986.28;29396;230;63009;-55
2023/10/03 00:47:14;;;;;;;0.40;0.40;;;;;;;18.30;70.63;96992.94;29396;251;63005;-54
2023/10/03 00:47:50;;;;;;;0.40;0.40;;;;;;;18.31;70.80;96988.25;29396;231;63025;-55
2023/10/03 00:48:22;;;;;;;0.40;0.40;;;;;;;18.32;70.57;96989.84;29395;274;64009;-55
2023/10/03 00:48:54;;;;;;;0.40;0.40;;;;;;;18.31;70.63;96990.97;29395;214;64013;-56
2023/10/03 00:49:28;;;;;;;0.40;0.40;;;;;;;18.31;70.63;96990.97;29396;212;63005;-55
2023/10/03 00:50:00;;;;;;;0.40;0.40;;;;;;;18.29;70.79;96985.03;29396;273;63009;-55
2023/10/03 00:50:32;;;;;;;0.40;0.40;;;;;;;18.27;70.47;96992.81;29395;215;64009;-55
2023/10/03 00:51:07;;;;;;;0.32;0.32;;;;;;;18.27;71.32;96987.31;29396;216;63009;-56
2023/10/03 00:51:40;;;;;;;0.40;0.40;;;;;;;18.26;70.91;96985.72;29396;258;63004;-55
2023/10/03 00:52:12;;;;;;;0.40;0.40;;;;;;;18.32;71.08;96990.66;29396;250;63009;-55
2023/10/03 00:52:46;;;;;;;0.40;0.40;;;;;;;18.33;71.07;96985.97;29396;265;63004;-55
2023/10/03 00:53:17;;;;;;;0.40;0.40;;;;;;;18.32;70.71;96984.34;29395;222;64008;-53
2023/10/03 00:53:53;;;;;;;0.40;0.40;;;;;;;18.30;70.88;96992.13;29396;240;63015;-56
2023/10/03 00:54:24;;;;;;;0.40;0.40;;;;;;;18.28;71.13;96994.41;29396;217;63009;-55
2023/10/03 00:54:56;;;;;;;0.40;0.40;;;;;;;18.25;71.50;96989.59;29396;206;63005;-54
2023/10/03 00:55:29;;;;;;;0.40;0.40;;;;;;;18.22;71.27;96993.03;29396;274;63026;-54
2023/10/03 00:56:02;;;;;;;0.40;0.40;;;;;;;18.22;71.08;96984.78;29395;266;64009;-54
2023/10/03 00:56:33;;;;;;;0.40;0.40;;;;;;;18.21;71.32;96996.91;29396;282;63009;-61
2023/10/03 00:57:04;;;;;;;0.37;0.37;;;;;;;18.19;71.64;96985.44;29396;239;63007;-54
2023/10/03 00:57:37;;;;;;;0.40;0.40;;;;;;;18.17;71.77;96987.75;29396;225;63009;-56
2023/10/03 00:58:59;;;;;;;0.50;0.50;;;;;;;18.22;71.21;96979.28;29396;252;63009;-55
2023/10/03 00:59:33;;;;;;;1.12;1.12;;;;;;;18.23;71.73;96975.41;29396;233;63004;-55
2023/10/03 01:00:16;;;;;;;0.40;0.40;;;;;;;18.22;71.40;96982.03;29395;227;64013;-55
2023/10/03 01:00:57;;;;;;;0.40;0.40;;;;;;;18.20;71.60;96981.56;29396;202;63004;-55
2023/10/03 01:01:28;;;;;;;;;;;;;;;18.23;71.30;96986.38;29996;982;6005;-55
2023/10/03 01:02:06;;;;;;;0.40;0.40;;;;;;;18.22;71.68;96990.28;29423;227;63009;-55
2023/10/03 01:02:49;;;;;;;0.40;0.40;;;;;;;18.22;71.30;96982.84;29396;197;63017;-55
2023/10/03 01:03:33;;;;;;;0.40;0.40;;;;;;;18.22;71.68;96980.09;29396;198;63028;-55
2023/10/03 01:04:12;;;;;;;0.40;0.40;;;;;;;18.22;71.35;96985.59;29395;216;64009;-55
2023/10/03 01:04:45;;;;;;;0.40;0.40;;;;;;;18.21;71.63;96983.16;29396;225;63009;-55
2023/10/03 01:05:17;;;;;;;0.40;0.40;;;;;;;18.19;71.17;96985.44;29396;208;63004;-55
2023/10/03 01:05:49;;;;;;;3.28;3.08;;;;;;;18.18;71.69;96990.16;29396;196;63009;-55
2023/10/03 01:06:21;;;;;;;0.40;0.40;;;;;;;18.18;71.51;96983.84;29396;233;63004;-55
2023/10/03 01:06:52;;;;;;;0.40;0.40;;;;;;;18.17;71.55;96982.25;29396;244;63009;-55
2023/10/03 01:07:23;;;;;;;0.40;0.40;;;;;;;18.16;71.55;96983.37;29396;223;63004;-55
2023/10/03 01:07:55;;;;;;;0.40;0.40;;;;;;;18.15;71.92;96984.53;29395;196;64013;-55
2023/10/03 01:08:29;;;;;;;0.40;0.40;;;;;;;18.16;71.95;96980.63;29396;208;63004;-55
2023/10/03 01:09:00;;;;;;;2.25;2.17;;;;;;;18.15;71.49;96984.53;29395;233;64014;-54
2023/10/03 01:09:33;;;;;;;0.40;0.40;;;;;;;18.15;71.38;96985.31;29396;197;63005;-56
2023/10/03 01:10:07;;;;;;;0.40;0.40;;;;;;;18.14;71.36;96989.22;29396;215;63009;-55
2023/10/03 01:10:38;;;;;;;0.40;0.40;;;;;;;18.15;71.74;96981.78;29395;215;64009;-55
2023/10/03 01:11:20;;;;;;;0.30;0.30;;;;;;;18.13;71.71;96973.88;29396;216;63009;-55
2023/10/03 01:11:53;;;;;;;0.40;0.40;;;;;;;18.13;71.81;96981.31;29396;228;63005;-61
2023/10/03 01:12:25;;;;;;;0.40;0.40;;;;;;;18.12;71.88;96979.72;29396;232;63018;-55
2023/10/03 01:12:59;;;;;;;0.40;0.40;;;;;;;18.12;71.85;96982.44;29396;241;63004;-55
2023/10/03 01:13:30;;;;;;;0.32;0.32;;;;;;;18.10;71.87;96980.03;29396;219;63009;-55
2023/10/03 01:14:05;;;;;;;0.30;0.30;;;;;;;18.11;72.06;96975.34;29396;218;63004;-55
2023/10/03 01:14:37;;;;;;;0.40;0.40;;;;;;;18.12;71.89;96977.75;29396;205;63004;-55
2023/10/03 01:15:19;;;;;;;0.30;0.30;;;;;;;18.11;72.39;96978.91;29396;228;63004;-56
2023/10/03 01:15:55;;;;;;;0.40;0.40;;;;;;;18.08;71.97;96974.91;29395;230;64013;-54
2023/10/03 01:16:33;;;;;;;0.30;0.30;;;;;;;18.06;72.24;96979.12;29396;209;63005;-55
2023/10/03 01:17:06;;;;;;;0.40;0.40;;;;;;;18.06;71.62;96974.44;29396;200;63009;-55
2023/10/03 01:17:38;;;;;;;0.40;0.40;;;;;;;18.07;71.75;96973.28;29396;217;63005;-55
2023/10/03 01:18:13;;;;;;;0.40;0.40;;;;;;;18.10;71.89;96974.56;29397;248;63009;-55
2023/10/03 01:18:45;;;;;;;0.40;0.40;;;;;;;18.11;71.65;96972.63;29397;217;63005;-54
2023/10/03 01:19:25;;;;;;;0.52;0.52;;;;;;;18.11;71.80;96972.63;29397;199;63009;-54
2023/10/03 01:19:59;;;;;;;0.40;0.40;;;;;;;18.11;71.79;96972.63;29419;235;63005;-55
2023/10/03 01:20:40;;;;;;;0.30;0.30;;;;;;;18.11;71.96;96972.63;29394;254;64013;-54
2023/10/03 01:21:11;;;;;;;0.40;0.40;;;;;;;18.10;71.76;96971.81;29419;197;63004;-55
2023/10/03 01:21:45;;;;;;;0.40;0.40;;;;;;;18.09;72.13;96973.75;29395;215;63015;-55
2023/10/03 01:22:16;;;;;;;0.40;0.40;;;;;;;18.09;71.71;96971.00;29396;225;63016;-54
2023/10/03 01:22:49;;;;;;;0.40;0.40;;;;;;;18.08;71.79;96969.41;29395;300;63008;-55
2023/10/03 01:23:20;;;;;;;0.40;0.40;;;;;;;18.08;71.86;96974.91;29394;196;64008;-54
2023/10/03 01:23:53;;;;;;;0.30;0.30;;;;;;;18.08;71.89;96972.16;29395;241;63018;-55
2023/10/03 01:24:24;;;;;;;0.40;0.40;;;;;;;18.08;71.61;96974.09;29396;230;63016;-54
2023/10/03 01:24:56;;;;;;;0.40;0.40;;;;;;;18.07;72.02;96973.28;29395;237;63009;-54
2023/10/03 01:25:28;;;;;;;0.50;0.50;;;;;;;18.07;72.00;96967.78;29395;208;63005;-55
2023/10/03 01:26:01;;;;;;;0.40;0.40;;;;;;;18.09;72.12;96965.50;29395;226;63009;-55
2023/10/03 01:26:32;;;;;;;0.40;0.40;;;;;;;18.11;72.23;96967.13;29393;197;64009;-55
2023/10/03 01:27:03;;;;;;;0.40;0.40;;;;;;;18.11;71.78;96967.94;29395;233;63009;-54
2023/10/03 01:27:39;;;;;;;0.37;0.37;;;;;;;18.11;71.63;96967.13;29395;223;63005;-54
2023/10/03 01:28:12;;;;;;;0.40;0.40;;;;;;;18.11;72.07;96967.13;29395;229;63009;-55
2023/10/03 01:28:44;;;;;;;0.40;0.40;;;;;;;18.12;71.53;96968.72;29395;203;63004;-56
2023/10/03 01:29:18;;;;;;;0.30;0.30;;;;;;;18.11;71.41;96961.63;29395;243;63009;-56
2023/10/03 01:29:50;;;;;;;0.40;0.40;;;;;;;18.09;71.74;96965.50;29395;253;63017;-57
2023/10/03 01:30:22;;;;;;;0.40;0.40;;;;;;;18.12;71.68;96963.22;29395;223;63008;-56
2023/10/03 01:30:57;;;;;;;0.40;0.40;;;;;;;18.13;71.39;96964.84;29395;199;63004;-55
2023/10/03 01:31:28;;;;;;;0.50;0.50;;;;;;;18.14;71.81;96960.94;29395;221;63009;-55
2023/10/03 01:32:00;;;;;;;0.40;0.40;;;;;;;18.14;71.62;96969.19;29393;226;64009;-54
2023/10/03 01:32:36;;;;;;;0.40;0.40;;;;;;;18.14;71.82;96961.75;29395;226;63009;-54
2023/10/03 01:33:10;;;;;;;0.40;0.40;;;;;;;18.15;71.45;96963.34;29395;332;63005;-55
2023/10/03 01:33:41;;;;;;;0.40;0.40;;;;;;;18.16;71.42;96962.22;29395;283;63009;-54
2023/10/03 01:34:12;;;;;;;0.40;0.40;;;;;;;18.17;71.40;96955.59;29395;238;63005;-54
2023/10/03 01:34:43;;;;;;;0.57;0.57;;;;;;;18.17;71.29;96965.78;29395;213;63009;-54
2023/10/03 01:35:15;;;;;;;0.40;0.40;;;;;;;18.16;71.51;96958.66;29395;212;63005;-54
2023/10/03 01:35:47;;;;;;;0.32;0.32;;;;;;;18.15;71.66;96965.31;29395;261;63024;-55
2023/10/03 01:36:18;;;;;;;0.40;0.40;;;;;;;18.17;71.34;96963.81;29395;237;63004;-55
2023/10/03 01:36:50;;;;;;;0.40;0.40;;;;;;;18.16;71.57;96959.47;29395;263;63009;-55
2023/10/03 01:37:21;;;;;;;0.40;0.40;;;;;;;18.15;71.51;96962.56;29393;234;64009;-54
2023/10/03 01:37:52;;;;;;;0.40;0.40;;;;;;;18.13;71.29;96964.84;29395;215;63008;-54
2023/10/03 01:38:23;;;;;;;0.40;0.40;;;;;;;18.12;71.70;96958.53;29395;202;63004;-54
2023/10/03 01:38:55;;;;;;;0.40;0.40;;;;;;;18.15;71.60;96962.56;29395;225;63009;-54
2023/10/03 01:39:27;;;;;;;0.40;0.40;;;;;;;18.21;71.33;96964.75;29395;340;63005;-55
2023/10/03 01:39:59;;;;;;;0.40;0.40;;;;;;;18.21;71.18;96959.25;29395;197;63028;-54
2023/10/03 01:40:30;;;;;;;11.30;2.15;;;;;;;18.19;71.54;96960.75;29390;219;64005;-54
2023/10/03 01:41:02;;;;;;;0.40;0.40;;;;;;;18.17;71.15;96971.25;29395;216;63009;-54
2023/10/03 01:41:37;;;;;;;0.40;0.40;;;;;;;18.16;71.49;96962.22;29393;226;64009;-55
2023/10/03 01:42:09;;;;;;;3.40;2.58;;;;;;;18.17;71.61;96965.78;29395;216;63009;-55
2023/10/03 01:42:47;;;;;;;0.40;0.40;;;;;;;18.16;71.64;96967.72;29395;238;63004;-55
2023/10/03 01:43:19;;;;;;;0.40;0.40;;;;;;;18.15;71.50;96962.56;29395;242;63009;-54
2023/10/03 01:43:50;;;;;;;0.40;0.40;;;;;;;18.14;71.65;96966.44;29395;224;63004;-55
2023/10/03 01:44:26;;;;;;;0.50;0.50;;;;;;;18.10;71.43;96969.06;29395;218;63009;-54
2023/10/03 01:44:59;;;;;;;0.40;0.40;;;;;;;18.08;71.73;96963.91;29395;210;63004;-55
2023/10/03 01:45:33;;;;;;;0.40;0.40;;;;;;;18.09;71.79;96960.03;29395;255;63008;-55
2023/10/03 01:46:04;;;;;;;0.80;0.80;;;;;;;18.12;71.76;96963.22;29395;204;63008;-54
2023/10/03 01:46:39;;;;;;;0.40;0.40;;;;;;;18.13;71.82;96959.34;29393;236;64014;-54
2023/10/03 01:47:11;;;;;;;0.40;0.40;;;;;;;18.15;71.33;96959.81;29393;267;64009;-56
2023/10/03 01:47:50;;;;;;;0.40;0.40;;;;;;;18.17;71.57;96946.53;29395;248;63009;-55
2023/10/03 01:48:21;;;;;;;0.40;0.40;;;;;;;18.16;71.43;96953.19;29395;239;63005;-56
2023/10/03 01:48:53;;;;;;;0.40;0.40;;;;;;;18.13;71.21;96959.34;29395;203;63009;-55
2023/10/03 01:49:24;;;;;;;0.40;0.40;;;;;;;18.13;71.59;96954.66;29395;234;63005;-54
2023/10/03 01:49:55;;;;;;;0.40;0.40;;;;;;;18.15;71.36;96951.56;29395;212;63009;-55
2023/10/03 01:50:28;;;;;;;1.10;0.93;;;;;;;18.14;71.31;96950.78;29395;237;63004;-55
2023/10/03 01:51:01;;;;;;;3.30;1.08;;;;;;;18.15;71.32;96944.13;29395;205;63009;-56
2023/10/03 01:51:33;;;;;;;0.40;0.40;;;;;;;18.14;71.56;96955.47;29395;306;63004;-55
2023/10/03 01:52:05;;;;;;;0.40;0.40;;;;;;;18.10;71.68;96947.09;29393;233;64013;-60
2023/10/03 01:52:40;;;;;;;0.40;0.40;;;;;;;18.10;71.66;96944.34;29395;222;63004;-55
2023/10/03 01:53:14;;;;;;;0.80;0.80;;;;;;;18.09;71.70;96948.25;29395;226;63026;-55
2023/10/03 01:53:46;;;;;;;0.40;0.40;;;;;;;18.07;71.65;96950.53;29395;252;63015;-55
2023/10/03 01:54:18;;;;;;;0.40;0.40;;;;;;;18.07;71.46;96945.03;29395;202;63009;-55
2023/10/03 01:54:50;;;;;;;0.50;0.50;;;;;;;18.05;71.78;96939.88;29395;197;63005;-55
2023/10/03 01:55:22;;;;;;;0.40;0.40;;;;;;;18.06;71.49;96943.44;29394;296;64013;-55
2023/10/03 01:55:54;;;;;;;0.40;0.40;;;;;;;18.06;71.62;96937.94;29395;228;63005;-54
2023/10/03 01:56:25;;;;;;;0.40;0.40;;;;;;;18.08;71.30;96941.12;29395;207;63009;-55
2023/10/03 01:56:56;;;;;;;0.40;0.40;;;;;;;18.11;71.51;96939.66;29395;219;63005;-55
2023/10/03 01:57:28;;;;;;;0.40;0.40;;;;;;;18.12;71.23;96936.56;29395;197;63009;-55
2023/10/03 01:58:00;;;;;;;0.60;0.60;;;;;;;18.14;71.38;96934.28;29395;200;63004;-55
2023/10/03 01:58:32;;;;;;;0.40;0.40;;;;;;;18.14;71.13;96936.25;29394;202;64013;-55
2023/10/03 01:59:04;;;;;;;0.40;0.40;;;;;;;18.15;71.25;96929.59;29395;285;63004;-56
2023/10/03 01:59:35;;;;;;;0.60;0.60;;;;;;;18.20;71.06;96934.88;29395;229;63024;-55
2023/10/03 02:00:23;;;;;;;1.87;1.77;;;;;;;18.19;70.95;96927.78;29395;203;63004;-54
2023/10/03 02:00:55;;;;;;;0.40;0.40;;;;;;;18.16;71.02;96922.97;29395;225;63027;-54
2023/10/03 02:01:28;;;;;;;0.60;0.60;;;;;;;18.15;70.97;96932.34;29395;207;63005;-55
2023/10/03 02:02:00;;;;;;;0.40;0.40;;;;;;;18.12;71.06;96930.28;29395;203;63009;-55
2023/10/03 02:02:31;;;;;;;0.40;0.40;;;;;;;18.09;71.20;96932.56;29395;221;63005;-55
2023/10/03 02:03:10;;;;;;;0.40;0.40;;;;;;;18.08;71.60;96930.97;29395;197;63009;-56
2023/10/03 02:03:42;;;;;;;0.40;0.40;;;;;;;18.07;71.59;96934.03;29393;198;64009;-55
2023/10/03 02:04:14;;;;;;;0.40;0.40;;;;;;;18.02;71.85;96932.31;29395;211;63025;-65
2023/10/03 02:04:45;;;;;;;0.47;0.47;;;;;;;18.00;71.74;96928.34;29395;230;63011;-55
2023/10/03 02:05:24;;;;;;;0.40;0.40;;;;;;;17.96;71.77;96928.22;29395;230;63009;-55
2023/10/03 02:05:56;;;;;;;0.50;0.50;;;;;;;17.96;71.78;96928.22;29395;236;63004;-56
2023/10/03 02:06:27;;;;;;;0.40;0.40;;;;;;;17.98;71.90;96925.94;29395;222;63009;-56
2023/10/03 02:06:59;;;;;;;0.40;0.40;;;;;;;17.97;71.76;96924.31;29395;232;63004;-56
2023/10/03 02:07:31;;;;;;;0.40;0.40;;;;;;;18.00;71.81;96922.84;29395;221;63008;-56
2023/10/03 02:08:12;;;;;;;0.40;0.40;;;;;;;18.01;71.42;96925.25;29395;217;63005;-55
2023/10/03 02:08:44;;;;;;;0.40;0.40;;;;;;;18.00;71.16;96922.84;29394;234;64014;-56
2023/10/03 02:09:15;;;;;;;0.40;0.40;;;;;;;17.98;71.28;96925.94;29395;202;63005;-55
2023/10/03 02:09:46;;;;;;;0.40;0.40;;;;;;;17.97;71.23;96921.56;29395;197;63026;-55
2023/10/03 02:10:19;;;;;;;0.43;0.43;;;;;;;17.99;71.34;96916.56;29395;202;63005;-56
2023/10/03 02:10:50;;;;;;;0.40;0.40;;;;;;;17.98;71.39;96920.44;29395;226;63009;-57
2023/10/03 02:11:26;;;;;;;0.50;0.50;;;;;;;17.99;71.27;96923.97;29395;218;63005;-56
2023/10/03 02:11:59;;;;;;;0.40;0.40;;;;;;;18.03;71.18;96922.94;29395;227;63009;-56
2023/10/03 02:12:30;;;;;;;0.40;0.40;;;;;;;18.03;71.08;96922.13;29395;205;63004;-56
2023/10/03 02:13:12;;;;;;;2.78;2.67;;;;;;;18.02;71.12;96918.59;29395;245;63023;-56
2023/10/03 02:13:45;;;;;;;0.40;0.40;;;;;;;17.99;71.05;96916.56;29395;216;63004;-55
2023/10/03 02:14:16;;;;;;;0.40;0.40;;;;;;;17.98;70.91;96925.12;29394;240;64013;-55
2023/10/03 02:14:49;;;;;;;0.40;0.40;;;;;;;17.98;71.07;96925.12;29395;276;63004;-55
2023/10/03 02:15:26;;;;;;;0.40;0.40;;;;;;;17.97;71.11;96918.84;29395;198;63008;-56
2023/10/03 02:15:59;;;;;;;0.50;0.50;;;;;;;17.96;70.97;96922.72;29395;232;63005;-56
2023/10/03 02:16:34;;;;;;;0.45;0.45;;;;;;;17.97;71.08;96923.53;29395;279;63009;-55
2023/10/03 02:17:06;;;;;;;0.40;0.40;;;;;;;17.99;71.07;96922.03;29395;199;63005;-56
2023/10/03 02:17:37;;;;;;;0.40;0.40;;;;;;;17.98;70.94;96925.12;29395;298;63009;-56
2023/10/03 02:18:12;;;;;;;0.40;0.40;;;;;;;17.98;71.14;96914.16;29394;303;64009;-56
2023/10/03 02:18:44;;;;;;;0.40;0.40;;;;;;;17.97;71.03;96927.06;29395;227;63024;-56
2023/10/03 02:19:17;;;;;;;1.85;1.85;;;;;;;17.96;70.85;96917.22;29395;241;63005;-57
2023/10/03 02:19:48;;;;;;;0.93;0.93;;;;;;;17.99;71.05;96915.75;29395;243;63009;-55
2023/10/03 02:20:28;;;;;;;0.40;0.40;;;;;;;17.99;71.19;96922.03;29395;202;63015;-56
2023/10/03 02:21:01;;;;;;;1.75;1.65;;;;;;;17.96;70.88;96916.44;29439;246;63009;-56
2023/10/03 02:21:35;;;;;;;0.40;0.40;;;;;;;17.96;71.00;96913.69;29395;223;63010;-55
2023/10/03 02:22:07;;;;;;;0.40;0.40;;;;;;;17.94;70.90;96916.75;29395;202;63009;-56
2023/10/03 02:22:38;;;;;;;1.12;1.02;;;;;;;17.94;70.87;96916.75;29395;222;63004;-56
2023/10/03 02:23:10;;;;;;;0.40;0.40;;;;;;;17.91;70.72;96909.19;29394;242;64014;-55
2023/10/03 02:23:42;;;;;;;0.40;0.40;;;;;;;17.94;70.48;96914.03;29395;212;63005;-55
2023/10/03 02:24:14;;;;;;;0.50;0.50;;;;;;;17.96;70.95;96917.22;29395;225;63009;-56
2023/10/03 02:24:45;;;;;;;0.40;0.40;;;;;;;17.96;70.42;96916.44;29395;249;63005;-56
2023/10/03 02:25:16;;;;;;;0.40;0.40;;;;;;;17.97;70.61;96907.06;29395;211;63009;-63
2023/10/03 02:25:51;;;;;;;0.50;0.50;;;;;;;17.96;70.84;96917.22;29395;208;63005;-55
2023/10/03 02:26:23;;;;;;;0.40;0.40;;;;;;;17.96;70.38;96909.00;29395;219;63009;-55
2023/10/03 02:26:55;;;;;;;0.40;0.40;;;;;;;18.01;70.40;96910.72;29395;227;63005;-55
2023/10/03 02:27:26;;;;;;;0.40;0.40;;;;;;;18.05;69.98;96901.44;29395;212;63009;-55
2023/10/03 02:27:59;;;;;;;0.65;0.65;;;;;;;18.10;69.78;96905.91;29395;217;63004;-64
2023/10/03 02:28:32;;;;;;;2.87;2.47;;;;;;;18.11;69.77;96906.72;29394;196;64013;-56
2023/10/03 02:29:03;;;;;;;0.40;0.40;;;;;;;18.13;69.93;96904.44;29395;218;63004;-55
2023/10/03 02:29:35;;;;;;;0.40;0.40;;;;;;;18.13;69.56;96904.44;29395;207;63023;-55
2023/10/03 02:30:12;;;;;;;0.40;0.40;;;;;;;18.09;69.79;96907.06;29395;206;63004;-55
2023/10/03 02:30:50;;;;;;;0.40;0.40;;;;;;;18.08;69.80;96906.25;29395;218;63009;-54
2023/10/03 02:31:22;;;;;;;0.40;0.40;;;;;;;18.06;69.89;96905.78;29395;289;63011;-55
2023/10/03 02:31:53;;;;;;;0.40;0.40;;;;;;;18.03;70.33;96900.97;29395;197;63009;-54
2023/10/03 02:32:25;;;;;;;0.40;0.40;;;;;;;18.01;70.17;96911.53;29395;238;63005;-54
2023/10/03 02:33:03;;;;;;;0.40;0.40;;;;;;;17.97;70.19;96907.06;29395;224;63009;-55
2023/10/03 02:33:40;;;;;;;0.47;0.47;;;;;;;17.98;70.25;96903.97;29394;198;64009;-54
2023/10/03 02:34:11;;;;;;;0.40;0.40;;;;;;;17.97;70.21;96902.38;29395;212;63009;-54
2023/10/03 02:34:43;;;;;;;0.40;0.40;;;;;;;17.97;70.26;96902.38;29394;205;64004;-54
2023/10/03 02:35:14;;;;;;;0.45;0.45;;;;;;;17.98;69.98;96903.97;29395;212;63009;-56
2023/10/03 02:35:47;;;;;;;0.40;0.40;;;;;;;17.96;70.11;96899.97;29395;213;63004;-55
2023/10/03 02:36:19;;;;;;;0.40;0.40;;;;;;;17.93;70.49;96895.94;29395;283;63009;-56
2023/10/03 02:36:51;;;;;;;0.40;0.40;;;;;;;17.92;70.64;96905.31;29395;198;63004;-54
2023/10/03 02:37:23;;;;;;;0.40;0.40;;;;;;;17.92;70.33;96902.56;29395;202;63008;-55
2023/10/03 02:37:56;;;;;;;0.47;0.47;;;;;;;17.94;70.48;96894.81;29395;257;63004;-55
2023/10/03 02:38:36;;;;;;;0.50;0.50;;;;;;;17.92;70.33;96894.34;29395;255;63026;-55
2023/10/03 02:39:08;;;;;;;0.50;0.50;;;;;;;17.93;70.27;96895.94;29394;204;64009;-54